createdAt,value
2023-05-01T00:02:46.341Z,97939.16
2023-05-01T00:07:49.264Z,97935.47
2023-05-01T00:12:51.415Z,97940.34
2023-05-01T00:17:54.638Z,97932.25
2023-05-01T00:22:57.971Z,97930.25
2023-05-01T00:28:00.200Z,97925.84
2023-05-01T00:33:02.514Z,97914.34
2023-05-01T00:38:04.846Z,97908.50
2023-05-01T00:43:07.057Z,97912.28
2023-05-01T00:48:11.006Z,97908.28
2023-05-01T00:53:13.484Z,97901.00
2023-05-01T00:58:18.912Z,97889.28
2023-05-01T01:03:21.749Z,97883.53
2023-05-01T01:08:32.560Z,97890.25
2023-05-01T01:13:54.933Z,97874.28
2023-05-01T01:19:38.705Z,97875.94
2023-05-01T01:24:59.336Z,97863.91
2023-05-01T01:30:32.390Z,97864.75
2023-05-01T01:35:37.011Z,97870.09
2023-05-01T01:40:53.238Z,97863.81
2023-05-01T01:46:03.829Z,97867.78
2023-05-01T01:51:13.852Z,97857.53
2023-05-01T01:56:20.796Z,97856.94
2023-05-01T02:01:25.079Z,97860.19
2023-05-01T02:06:29.932Z,97848.16
2023-05-01T02:11:33.657Z,97841.38
2023-05-01T02:16:37.534Z,97836.53
2023-05-01T02:21:41.346Z,97837.72
2023-05-01T02:26:49.772Z,97832.34
2023-05-01T02:31:52.210Z,97823.56
2023-05-01T02:36:54.574Z,97823.88
2023-05-01T02:42:01.749Z,97818.06
2023-05-01T02:47:07.299Z,97812.16
2023-05-01T02:52:11.673Z,97808.19
2023-05-01T02:57:14.308Z,97812.94
2023-05-01T03:02:16.429Z,97810.78
2023-05-01T03:07:18.654Z,97805.28
2023-05-01T03:12:21.864Z,97805.78
2023-05-01T03:17:24.033Z,97801.84
2023-05-01T03:22:33.211Z,97801.13
2023-05-01T03:27:35.574Z,97802.31
2023-05-01T03:32:37.800Z,97801.69
2023-05-01T03:37:42.208Z,97789.09
2023-05-01T03:42:44.675Z,97787.69
2023-05-01T03:47:54.989Z,97784.25
2023-05-01T03:52:57.767Z,97773.72
2023-05-01T03:57:59.969Z,97778.94
2023-05-01T04:08:05.328Z,97769.75
2023-05-01T04:13:07.654Z,97774.75
2023-05-01T04:18:10.957Z,97770.09
2023-05-01T04:23:13.109Z,97770.84
2023-05-01T04:28:15.279Z,97769.22
2023-05-01T04:33:17.568Z,97772.19
2023-05-01T04:38:19.975Z,97768.28
2023-05-01T04:43:24.153Z,97776.59
2023-05-01T04:48:26.530Z,97776.59
2023-05-01T04:53:29.378Z,97765.66
2023-05-01T04:58:32.433Z,97778.41
2023-05-01T05:03:41.285Z,97781.16
2023-05-01T05:08:45.639Z,97779.81
2023-05-01T05:13:48.157Z,97775.84
2023-05-01T05:18:50.716Z,97774.78
2023-05-01T05:23:54.128Z,97782.00
2023-05-01T05:28:56.517Z,97774.84
2023-05-01T05:33:58.926Z,97775.56
2023-05-01T05:39:01.199Z,97778.59
2023-05-01T05:44:03.766Z,97786.81
2023-05-01T05:49:06.896Z,97789.22
2023-05-01T05:54:09.166Z,97787.72
2023-05-01T05:59:11.991Z,97782.97
2023-05-01T06:04:17.016Z,97781.78
2023-05-01T06:09:20.408Z,97776.91
2023-05-01T06:14:22.878Z,97778.94
2023-05-01T06:19:25.126Z,97784.56
2023-05-01T06:24:36.274Z,97786.16
2023-05-01T06:29:38.689Z,97783.63
2023-05-01T06:34:40.996Z,97786.94
2023-05-01T06:39:43.258Z,97791.19
2023-05-01T06:44:45.598Z,97794.75
2023-05-01T06:49:47.834Z,97795.09
2023-05-01T06:54:49.992Z,97801.69
2023-05-01T06:59:52.188Z,97806.03
2023-05-01T07:04:54.532Z,97815.88
2023-05-01T07:09:57.106Z,97816.28
2023-05-01T07:15:00.026Z,97815.28
2023-05-01T07:20:02.693Z,97815.53
2023-05-01T07:25:05.686Z,97811.06
2023-05-01T07:30:09.966Z,97807.41
2023-05-01T07:35:12.498Z,97799.47
2023-05-01T07:40:14.756Z,97807.41
2023-05-01T07:45:17.078Z,97793.91
2023-05-01T07:50:20.887Z,97798.34
2023-05-01T07:55:23.986Z,97795.50
2023-05-01T08:00:26.057Z,97795.72
2023-05-01T08:05:28.194Z,97789.22
2023-05-01T08:10:30.567Z,97790.66
2023-05-01T08:15:32.723Z,97790.16
2023-05-01T08:20:36.920Z,97796.56
2023-05-01T08:25:39.055Z,97794.53
2023-05-01T08:30:41.252Z,97794.06
2023-05-01T08:35:43.659Z,97779.84
2023-05-01T08:40:53.701Z,97779.81
2023-05-01T08:45:59.393Z,97770.47
2023-05-01T08:51:04.326Z,97776.91
2023-05-01T08:56:08.519Z,97777.31
2023-05-01T09:01:16.362Z,97776.31
2023-05-01T09:06:20.321Z,97775.19
2023-05-01T09:11:24.808Z,97778.34
2023-05-01T09:16:27.374Z,97779.50
2023-05-01T09:21:32.159Z,97775.44
2023-05-01T09:26:37.086Z,97767.91
2023-05-01T09:31:39.247Z,97773.53
2023-05-01T09:36:47.740Z,97776.78
2023-05-01T09:41:52.960Z,97778.44
2023-05-01T09:46:55.586Z,97767.22
2023-05-01T09:52:12.077Z,97767.44
2023-05-01T09:57:14.305Z,97761.13
2023-05-01T10:02:30.945Z,97768.72
2023-05-01T10:07:34.435Z,97775.28
2023-05-01T10:12:37.627Z,97780.69
2023-05-01T10:17:41.892Z,97777.50
2023-05-01T10:22:44.657Z,97776.88
2023-05-01T10:27:48.685Z,97767.25
2023-05-01T10:32:52.970Z,97770.91
2023-05-01T10:38:07.259Z,97775.22
2023-05-01T10:43:31.080Z,97769.91
2023-05-01T10:48:42.633Z,97771.34
2023-05-01T10:53:46.754Z,97767.19
2023-05-01T10:59:06.604Z,97765.38
2023-05-01T11:04:23.001Z,97766.41
2023-05-01T11:09:49.566Z,97750.66
2023-05-01T11:14:55.943Z,97751.66
2023-05-01T11:19:58.800Z,97752.69
2023-05-01T11:25:04.825Z,97756.38
2023-05-01T11:30:08.209Z,97746.88
2023-05-01T11:35:30.086Z,97742.84
2023-05-01T11:40:35.248Z,97745.53
2023-05-01T11:45:38.128Z,97753.94
2023-05-01T11:50:40.270Z,97748.28
2023-05-01T11:55:42.483Z,97750.72
2023-05-01T12:00:44.759Z,97748.44
2023-05-01T12:05:49.240Z,97745.09
2023-05-01T12:10:59.057Z,97742.28
2023-05-01T12:16:01.936Z,97738.66
2023-05-01T12:21:04.116Z,97731.66
2023-05-01T12:26:25.891Z,97740.69
2023-05-01T12:31:29.764Z,97736.59
2023-05-01T12:36:35.178Z,97732.63
2023-05-01T12:41:46.910Z,97728.66
2023-05-01T12:47:04.574Z,97739.03
2023-05-01T12:52:09.565Z,97737.16
2023-05-01T12:57:15.074Z,97722.50
2023-05-01T13:02:18.652Z,97724.91
2023-05-01T13:07:21.219Z,97731.59
2023-05-01T13:12:25.359Z,97719.41
2023-05-01T13:17:31.435Z,97727.38
2023-05-01T13:22:36.157Z,97723.28
2023-05-01T13:27:38.367Z,97727.19
2023-05-01T13:32:42.528Z,97730.63
2023-05-01T13:37:44.684Z,97736.66
2023-05-01T13:42:48.488Z,97742.41
2023-05-01T13:47:52.174Z,97741.03
2023-05-01T13:52:54.360Z,97733.09
2023-05-01T13:57:56.683Z,97732.78
2023-05-01T14:02:59.989Z,97737.88
2023-05-01T14:08:02.505Z,97739.09
2023-05-01T14:13:05.298Z,97730.22
2023-05-01T14:18:08.119Z,97722.75
2023-05-01T14:23:10.926Z,97726.59
2023-05-01T14:28:13.376Z,97714.59
2023-05-01T14:33:16.354Z,97718.84
2023-05-01T14:38:21.545Z,97717.28
2023-05-01T14:43:23.679Z,97729.25
2023-05-01T14:48:34.165Z,97736.16
2023-05-01T14:53:36.470Z,97741.44
2023-05-01T14:58:39.230Z,97746.69
2023-05-01T15:03:43.949Z,97752.22
2023-05-01T15:08:47.004Z,97760.59
2023-05-01T15:13:50.627Z,97767.72
2023-05-01T15:18:52.845Z,97764.09
2023-05-01T15:23:55.255Z,97768.91
2023-05-01T15:28:57.422Z,97777.31
2023-05-01T15:33:59.583Z,97766.41
2023-05-01T15:39:01.733Z,97757.41
2023-05-01T15:44:06.039Z,97757.75
2023-05-01T15:49:10.229Z,97754.41
2023-05-01T15:54:12.400Z,97754.06
2023-05-01T15:59:14.644Z,97766.91
2023-05-01T16:04:16.846Z,97763.00
2023-05-01T16:09:19.359Z,97781.44
2023-05-01T16:14:21.808Z,97781.31
2023-05-01T16:19:24.204Z,97783.84
2023-05-01T16:24:26.631Z,97784.38
2023-05-01T16:29:29.215Z,97792.41
2023-05-01T16:34:31.504Z,97814.31
2023-05-01T16:39:38.627Z,97822.53
2023-05-01T16:44:41.674Z,97810.34
2023-05-01T16:49:44.503Z,97811.69
2023-05-01T16:54:46.673Z,97794.47
2023-05-01T16:59:49.526Z,97788.88
2023-05-01T17:04:52.017Z,97790.91
2023-05-01T17:09:55.047Z,97792.69
2023-05-01T17:14:57.340Z,97799.81
2023-05-01T17:19:59.902Z,97813.69
2023-05-01T17:25:04.043Z,97808.84
2023-05-01T17:30:07.445Z,97807.25
2023-05-01T17:35:10.043Z,97814.50
2023-05-01T17:40:12.619Z,97833.44
2023-05-01T17:45:14.926Z,97825.38
2023-05-01T17:50:17.183Z,97825.88
2023-05-01T17:55:19.637Z,97839.09
2023-05-01T18:00:23.067Z,97833.69
2023-05-01T18:05:25.528Z,97836.16
2023-05-01T18:10:31.313Z,97844.75
2023-05-01T18:15:33.691Z,97856.81
2023-05-01T18:20:36.118Z,97871.53
2023-05-01T18:25:39.504Z,97866.50
2023-05-01T18:30:41.942Z,97871.06
2023-05-01T18:35:44.124Z,97878.97
2023-05-01T18:40:47.761Z,97883.38
2023-05-01T18:45:49.961Z,97885.25
2023-05-01T18:51:07.087Z,97884.44
2023-05-01T18:56:09.780Z,97891.91
2023-05-01T19:01:12.226Z,97892.03
2023-05-01T19:06:14.483Z,97898.47
2023-05-01T19:11:18.538Z,97901.41
2023-05-01T19:16:20.834Z,97903.16
2023-05-01T19:21:23.888Z,97918.53
2023-05-01T19:26:26.428Z,97926.03
2023-05-01T19:31:28.579Z,97919.28
2023-05-01T19:36:30.850Z,97933.78
2023-05-01T19:41:33.204Z,97922.34
2023-05-01T19:46:35.433Z,97929.69
2023-05-01T19:51:38.185Z,97938.09
2023-05-01T19:56:40.471Z,97934.78
2023-05-01T20:01:42.790Z,97937.72
2023-05-01T20:06:45.137Z,97953.63
2023-05-01T20:11:48.657Z,97962.84
2023-05-01T20:16:52.389Z,97964.59
2023-05-01T20:21:54.647Z,97973.63
2023-05-01T20:26:58.348Z,97979.78
2023-05-01T20:32:00.586Z,97994.13
2023-05-01T20:37:03.204Z,97991.28
2023-05-01T20:42:05.395Z,98001.31
2023-05-01T20:47:07.749Z,98005.97
2023-05-01T20:52:10.064Z,98008.41
2023-05-01T20:57:12.197Z,98004.16
2023-05-01T21:02:16.316Z,98014.66
2023-05-01T21:07:18.772Z,98024.34
2023-05-01T21:12:21.025Z,98016.94
2023-05-01T21:17:23.364Z,98025.22
2023-05-01T21:22:26.049Z,98022.78
2023-05-01T21:27:28.519Z,98024.16
2023-05-01T21:32:40.062Z,98027.66
2023-05-01T21:37:43.899Z,98023.91
2023-05-01T21:42:46.814Z,98024.63
2023-05-01T21:47:51.607Z,98029.34
2023-05-01T21:52:53.854Z,98029.69
2023-05-01T21:57:58.203Z,98036.78
2023-05-01T22:03:05.906Z,98040.78
2023-05-01T22:08:08.168Z,98034.72
2023-05-01T22:13:11.602Z,98038.91
2023-05-01T22:18:17.798Z,98036.31
2023-05-01T22:23:20.081Z,98030.66
2023-05-01T22:28:22.814Z,98038.59
2023-05-01T22:33:25.028Z,98047.84
2023-05-01T22:38:27.173Z,98039.19
2023-05-01T22:43:29.348Z,98054.41
2023-05-01T22:48:32.379Z,98057.97
2023-05-01T22:53:34.501Z,98070.50
2023-05-01T22:58:37.205Z,98072.94
2023-05-01T23:03:39.614Z,98063.03
2023-05-01T23:08:41.884Z,98073.88
2023-05-01T23:13:49.603Z,98073.56
2023-05-01T23:18:52.428Z,98080.00
2023-05-01T23:23:54.728Z,98078.94
2023-05-01T23:28:57.185Z,98089.44
2023-05-01T23:34:02.752Z,98089.13
2023-05-01T23:39:05.134Z,98089.13
2023-05-01T23:44:08.394Z,98079.66
2023-05-01T23:49:10.720Z,98079.53
2023-05-01T23:54:12.877Z,98073.03
2023-05-01T23:59:15.207Z,98082.78
